Terminal Aerodrome Forecast
Issued by NWS Cleveland, OH

Home | Current Version | Previous Version | Text Only | Print | Product List | Glossary Off
Versions: 1 2 3 4 5 6 7 8 9 10 11 12 13 14 15 16 17

000
FTUS41 KCLE 032300
TAFERI
TAF
KERI 032325Z 0400/0424 19015G25KT P6SM OVC015
     FM040900 26008KT P6SM OVC015
     FM042000 29010G15KT P6SM OVC025
     FM042200 29010KT P6SM OVC100=

USA.gov is the U.S. government's official web portal to all federal, state and local government web resources and services.